createdAt,value
2022-08-17T00:00:11.985Z,98436.19
2022-08-17T00:02:57.274Z,98422.38
2022-08-17T00:05:24.449Z,98437.16
2022-08-17T00:07:51.263Z,98443.34
2022-08-17T00:10:18.079Z,98430.09
2022-08-17T00:12:44.899Z,98427.03
2022-08-17T00:15:11.489Z,98429.28
2022-08-17T00:17:38.252Z,98428.41
2022-08-17T00:20:04.823Z,98429.41
2022-08-17T00:22:36.095Z,98426.75
2022-08-17T00:25:08.927Z,98428.00
2022-08-17T00:27:35.334Z,98430.63
2022-08-17T00:30:01.955Z,98419.59
2022-08-17T00:33:23.147Z,98429.88
2022-08-17T00:35:14.967Z,98421.13
2022-08-17T00:37:41.537Z,98421.88
2022-08-17T00:40:07.990Z,98430.63
2022-08-17T00:42:34.473Z,98427.84
2022-08-17T00:45:01.310Z,98433.09
2022-08-17T00:47:27.725Z,98427.53
2022-08-17T00:49:54.158Z,98432.72
2022-08-17T00:52:20.996Z,98437.13
2022-08-17T00:54:47.412Z,98434.97
2022-08-17T00:57:13.825Z,98435.03
2022-08-17T00:59:40.612Z,98434.63
2022-08-17T01:02:07.021Z,98428.00
2022-08-17T01:04:33.580Z,98435.69
2022-08-17T01:07:00.712Z,98431.72
2022-08-17T01:09:27.296Z,98435.44
2022-08-17T01:11:53.771Z,98445.22
2022-08-17T01:14:20.289Z,98439.41
2022-08-17T01:16:46.971Z,98442.50
2022-08-17T01:19:13.431Z,98432.28
2022-08-17T01:21:40.006Z,98434.59
2022-08-17T01:24:06.611Z,98440.41
2022-08-17T01:26:33.042Z,98441.25
2022-08-17T01:28:59.680Z,98441.66
2022-08-17T01:31:26.131Z,98436.66
2022-08-17T01:33:52.750Z,98439.56
2022-08-17T01:36:19.230Z,98446.88
2022-08-17T01:38:45.722Z,98443.41
2022-08-17T01:41:12.164Z,98442.78
2022-08-17T01:43:38.798Z,98445.28
2022-08-17T01:46:05.284Z,98450.31
2022-08-17T01:48:31.737Z,98452.69
2022-08-17T01:50:58.472Z,98444.84
2022-08-17T01:53:24.839Z,98453.59
2022-08-17T01:55:51.263Z,98450.06
2022-08-17T01:58:21.103Z,98452.91
2022-08-17T02:01:00.934Z,98456.00
2022-08-17T02:03:28.190Z,98459.50
2022-08-17T02:05:54.847Z,98462.41
2022-08-17T02:08:21.411Z,98458.88
2022-08-17T02:11:05.959Z,98456.56
2022-08-17T02:13:37.880Z,98458.03
2022-08-17T02:16:04.285Z,98455.53
2022-08-17T02:18:30.913Z,98455.91
2022-08-17T02:20:57.349Z,98453.38
2022-08-17T02:23:23.743Z,98452.72
2022-08-17T02:25:50.399Z,98452.09
2022-08-17T02:28:19.943Z,98449.59
2022-08-17T02:30:59.470Z,98447.09
2022-08-17T02:33:42.816Z,98451.03
2022-08-17T02:36:10.111Z,98456.41
2022-08-17T02:38:36.713Z,98456.19
2022-08-17T02:41:03.124Z,98455.28
2022-08-17T02:43:29.505Z,98460.38
2022-08-17T02:45:56.300Z,98463.72
2022-08-17T02:48:31.611Z,98464.75
2022-08-17T02:50:59.064Z,98460.41
2022-08-17T02:53:25.752Z,98468.09
2022-08-17T02:55:52.368Z,98450.63
2022-08-17T02:58:34.540Z,98457.84
2022-08-17T03:01:02.044Z,98458.66
2022-08-17T03:03:28.714Z,98456.44
2022-08-17T03:05:55.151Z,98453.78
2022-08-17T03:08:21.562Z,98457.78
2022-08-17T03:10:48.337Z,98457.97
2022-08-17T03:13:14.741Z,98454.44
2022-08-17T03:15:41.525Z,98458.34
2022-08-17T03:18:11.586Z,98460.66
2022-08-17T03:20:50.822Z,98468.09
2022-08-17T03:23:17.454Z,98474.72
2022-08-17T03:25:44.326Z,98466.25
2022-08-17T03:28:12.157Z,98463.75
2022-08-17T03:30:38.749Z,98460.84
2022-08-17T03:33:05.203Z,98462.41
2022-08-17T03:35:31.826Z,98466.25
2022-08-17T03:38:00.799Z,98465.22
2022-08-17T03:40:57.809Z,98464.66
2022-08-17T03:43:14.015Z,98468.19
2022-08-17T03:45:42.173Z,98469.84
2022-08-17T03:48:09.729Z,98471.34
2022-08-17T03:50:36.426Z,98477.41
2022-08-17T03:53:02.846Z,98473.38
2022-08-17T03:55:35.819Z,98465.13
2022-08-17T04:00:53.730Z,98466.13
2022-08-17T04:03:20.220Z,98464.47
2022-08-17T04:05:48.736Z,98471.25
2022-08-17T04:08:15.423Z,98474.16
2022-08-17T04:10:45.087Z,98477.22
2022-08-17T04:13:11.761Z,98488.81
2022-08-17T04:15:38.336Z,98478.44
2022-08-17T04:18:04.700Z,98480.09
2022-08-17T04:20:31.072Z,98478.06
2022-08-17T04:22:57.766Z,98477.03
2022-08-17T04:25:24.170Z,98472.66
2022-08-17T04:27:50.623Z,98488.81
2022-08-17T04:30:17.246Z,98480.09
2022-08-17T04:33:04.896Z,98480.09
2022-08-17T04:35:30.260Z,98472.22
2022-08-17T04:37:58.623Z,98478.81
2022-08-17T04:40:27.243Z,98485.31
2022-08-17T04:43:00.938Z,98484.34
2022-08-17T04:45:32.302Z,98484.63
2022-08-17T04:47:59.129Z,98486.31
2022-08-17T04:50:25.494Z,98491.88
2022-08-17T04:52:51.916Z,98494.38
2022-08-17T04:55:18.511Z,98494.75
2022-08-17T04:57:45.224Z,98493.44
2022-08-17T05:00:11.834Z,98491.88
2022-08-17T05:02:38.286Z,98493.63
2022-08-17T05:05:16.551Z,98493.88
2022-08-17T05:07:43.155Z,98500.56
2022-08-17T05:10:09.582Z,98500.81
2022-08-17T05:12:35.949Z,98493.91
2022-08-17T05:15:02.403Z,98494.91
2022-08-17T05:17:28.748Z,98506.38
2022-08-17T05:19:55.107Z,98504.81
2022-08-17T05:22:22.120Z,98504.22
2022-08-17T05:24:53.461Z,98499.56
2022-08-17T05:27:20.386Z,98497.78
2022-08-17T05:29:47.332Z,98494.78
2022-08-17T05:32:38.392Z,98488.47
2022-08-17T05:35:00.205Z,98494.41
2022-08-17T05:37:26.803Z,98496.31
2022-08-17T05:39:53.194Z,98488.88
2022-08-17T05:42:19.776Z,98501.41
2022-08-17T05:44:46.273Z,98500.78
2022-08-17T05:47:12.646Z,98504.38
2022-08-17T05:49:39.398Z,98496.47
2022-08-17T05:52:05.803Z,98500.22
2022-08-17T05:54:32.174Z,98494.44
2022-08-17T05:56:58.617Z,98499.44
2022-08-17T05:59:25.018Z,98499.84
2022-08-17T06:01:51.441Z,98493.59
2022-08-17T06:04:18.169Z,98501.50
2022-08-17T06:06:44.629Z,98489.66
2022-08-17T06:09:11.060Z,98495.69
2022-08-17T06:11:37.588Z,98491.34
2022-08-17T06:14:03.977Z,98497.25
2022-08-17T06:16:33.677Z,98492.88
2022-08-17T06:19:01.176Z,98495.19
2022-08-17T06:21:32.152Z,98498.09
2022-08-17T06:23:58.706Z,98500.38
2022-08-17T06:26:25.900Z,98495.00
2022-08-17T06:28:56.902Z,98502.88
2022-08-17T06:31:23.355Z,98501.22
2022-08-17T06:33:49.834Z,98502.88
2022-08-17T06:36:16.281Z,98507.47
2022-08-17T06:38:42.696Z,98507.09
2022-08-17T06:41:09.322Z,98515.00
2022-08-17T06:43:35.706Z,98514.16
2022-08-17T06:46:02.105Z,98520.00
2022-08-17T06:48:30.903Z,98517.34
2022-08-17T06:50:57.313Z,98512.06
2022-08-17T06:53:23.713Z,98513.75
2022-08-17T06:55:50.439Z,98520.00
2022-08-17T06:58:17.059Z,98513.81
2022-08-17T07:00:43.584Z,98513.00
2022-08-17T07:03:10.373Z,98515.91
2022-08-17T07:05:37.036Z,98518.22
2022-08-17T07:08:05.168Z,98511.56
2022-08-17T07:10:31.653Z,98520.31
2022-08-17T07:12:58.056Z,98517.00
2022-08-17T07:15:24.430Z,98511.84
2022-08-17T07:17:51.074Z,98525.09
2022-08-17T07:20:17.540Z,98528.44
2022-08-17T07:22:55.251Z,98520.53
2022-08-17T07:25:26.488Z,98523.47
2022-08-17T07:27:53.002Z,98521.19
2022-08-17T07:30:19.538Z,98521.88
2022-08-17T07:32:46.127Z,98518.97
2022-08-17T07:35:12.509Z,98524.78
2022-08-17T07:37:41.639Z,98517.09
2022-08-17T07:40:15.932Z,98521.91
2022-08-17T07:42:46.681Z,98521.88
2022-08-17T07:45:16.558Z,98530.00
2022-08-17T07:47:43.080Z,98520.03
2022-08-17T07:50:09.563Z,98521.88
2022-08-17T07:52:51.008Z,98512.75
2022-08-17T07:55:18.850Z,98519.78
2022-08-17T07:57:45.279Z,98525.41
2022-08-17T08:00:14.717Z,98522.72
2022-08-17T08:02:42.964Z,98526.88
2022-08-17T08:05:10.133Z,98525.44
2022-08-17T08:07:36.581Z,98524.59
2022-08-17T08:10:03.477Z,98515.03
2022-08-17T08:12:33.659Z,98524.81
2022-08-17T08:15:00.337Z,98518.22
2022-08-17T08:17:26.744Z,98522.78
2022-08-17T08:19:55.783Z,98522.13
2022-08-17T08:22:22.206Z,98518.16
2022-08-17T08:24:48.627Z,98511.50
2022-08-17T08:27:15.369Z,98518.59
2022-08-17T08:29:44.983Z,98512.19
2022-08-17T08:32:11.414Z,98511.19
2022-08-17T08:34:45.013Z,98520.66
2022-08-17T08:37:33.195Z,98521.13
2022-08-17T08:40:04.462Z,98520.13
2022-08-17T08:42:30.960Z,98515.97
2022-08-17T08:45:00.086Z,98520.31
2022-08-17T08:47:30.931Z,98517.63
2022-08-17T08:50:04.416Z,98521.19
2022-08-17T08:52:31.595Z,98528.06
2022-08-17T08:54:57.959Z,98529.31
2022-08-17T08:57:30.747Z,98525.16
2022-08-17T08:59:58.481Z,98526.97
2022-08-17T09:02:25.247Z,98528.69
2022-08-17T09:05:13.456Z,98534.88
2022-08-17T09:07:38.377Z,98529.06
2022-08-17T09:10:04.762Z,98520.34
2022-08-17T09:12:31.163Z,98526.16
2022-08-17T09:14:58.176Z,98533.25
2022-08-17T09:17:24.634Z,98525.34
2022-08-17T09:19:50.991Z,98517.47
2022-08-17T09:22:17.556Z,98529.91
2022-08-17T09:24:43.955Z,98532.84
2022-08-17T09:27:10.378Z,98524.53
2022-08-17T09:29:36.958Z,98524.09
2022-08-17T09:32:03.363Z,98530.97
2022-08-17T09:34:33.146Z,98528.47
2022-08-17T09:37:00.017Z,98531.38
2022-08-17T09:39:26.570Z,98517.88
2022-08-17T09:41:52.972Z,98520.38
2022-08-17T09:44:23.425Z,98524.94
2022-08-17T09:46:50.305Z,98511.63
2022-08-17T09:49:16.728Z,98509.09
2022-08-17T09:51:43.300Z,98502.78
2022-08-17T09:54:37.570Z,98509.31
2022-08-17T09:57:18.108Z,98505.56
2022-08-17T09:59:42.939Z,98514.91
2022-08-17T10:02:13.529Z,98512.44
2022-08-17T10:04:40.236Z,98505.97
2022-08-17T10:07:06.652Z,98506.59
2022-08-17T10:09:33.354Z,98504.28
2022-08-17T10:11:59.750Z,98503.63
2022-08-17T10:14:38.003Z,98506.97
2022-08-17T10:17:10.943Z,98512.13
2022-08-17T10:19:37.361Z,98507.75
2022-08-17T10:22:14.881Z,98502.13
2022-08-17T10:25:21.727Z,98483.63
2022-08-17T10:27:37.342Z,98489.25
2022-08-17T10:30:03.875Z,98496.94
2022-08-17T10:32:30.289Z,98491.22
2022-08-17T10:34:56.663Z,98491.41
2022-08-17T10:37:23.431Z,98495.78
2022-08-17T10:39:51.952Z,98494.94
2022-08-17T10:42:30.505Z,98493.94
2022-08-17T10:44:59.760Z,98488.91
2022-08-17T10:47:26.235Z,98481.75
2022-08-17T10:49:52.666Z,98487.34
2022-08-17T10:52:19.943Z,98486.13
2022-08-17T10:54:46.373Z,98479.84
2022-08-17T10:57:12.875Z,98479.41
2022-08-17T10:59:40.034Z,98470.72
2022-08-17T11:02:06.510Z,98471.63
2022-08-17T11:04:32.843Z,98480.19
2022-08-17T11:06:59.348Z,98476.03
2022-08-17T11:09:25.811Z,98470.28
2022-08-17T11:11:52.234Z,98463.41
2022-08-17T11:14:18.943Z,98472.22
2022-08-17T11:16:45.360Z,98465.91
2022-08-17T11:19:11.845Z,98465.47
2022-08-17T11:21:38.768Z,98469.69
2022-08-17T11:24:05.181Z,98473.59
2022-08-17T11:26:31.607Z,98460.03
2022-08-17T11:28:58.267Z,98462.69
2022-08-17T11:31:38.386Z,98460.53
2022-08-17T11:34:06.258Z,98453.38
2022-08-17T11:36:32.656Z,98453.28
2022-08-17T11:38:59.047Z,98452.78
2022-08-17T11:41:25.678Z,98451.84
2022-08-17T11:43:52.095Z,98441.69
2022-08-17T11:46:18.481Z,98446.44
2022-08-17T11:48:44.989Z,98434.75
2022-08-17T11:51:11.427Z,98434.00
2022-08-17T11:53:37.816Z,98436.94
2022-08-17T11:56:04.567Z,98426.97
2022-08-17T11:58:30.964Z,98427.56
2022-08-17T12:00:57.343Z,98425.50
2022-08-17T12:03:24.019Z,98424.66
2022-08-17T12:05:50.446Z,98429.31
2022-08-17T12:08:16.890Z,98424.19
2022-08-17T12:10:43.468Z,98423.88
2022-08-17T12:13:09.887Z,98428.75
2022-08-17T12:15:36.385Z,98417.88
2022-08-17T12:18:03.018Z,98422.13
2022-08-17T12:20:29.491Z,98418.63
2022-08-17T12:22:55.909Z,98414.13
2022-08-17T12:25:22.534Z,98417.75
2022-08-17T12:28:06.099Z,98410.59
2022-08-17T12:30:33.746Z,98410.75
2022-08-17T12:33:00.224Z,98409.38
2022-08-17T12:35:26.641Z,98405.16
2022-08-17T12:37:53.314Z,98401.78
2022-08-17T12:40:19.833Z,98392.88
2022-08-17T12:42:46.287Z,98390.44
2022-08-17T12:45:12.901Z,98390.19
2022-08-17T12:47:39.409Z,98391.38
2022-08-17T12:50:05.881Z,98391.50
2022-08-17T12:52:32.542Z,98388.56
2022-08-17T12:54:59.015Z,98391.41
2022-08-17T12:57:25.578Z,98396.84
2022-08-17T12:59:52.917Z,98389.09
2022-08-17T13:02:19.336Z,98391.66
2022-08-17T13:04:45.789Z,98397.38
2022-08-17T13:07:12.334Z,98390.41
2022-08-17T13:09:40.407Z,98390.41
2022-08-17T13:12:07.694Z,98395.13
2022-08-17T13:14:34.832Z,98397.47
2022-08-17T13:17:01.409Z,98393.22
2022-08-17T13:19:40.059Z,98381.50
2022-08-17T13:22:07.952Z,98386.38
2022-08-17T13:24:37.940Z,98376.66
2022-08-17T13:27:08.242Z,98382.09
2022-08-17T13:29:35.162Z,98377.00
2022-08-17T13:32:04.120Z,98375.75
2022-08-17T13:34:31.470Z,98363.97
2022-08-17T13:37:00.028Z,98377.69
2022-08-17T13:39:26.535Z,98372.44
2022-08-17T13:41:53.186Z,98363.97
2022-08-17T13:44:19.766Z,98371.91
2022-08-17T13:46:46.255Z,98365.56
2022-08-17T13:49:18.969Z,98374.34
2022-08-17T13:51:45.950Z,98362.97
2022-08-17T13:54:12.555Z,98365.88
2022-08-17T13:56:39.731Z,98364.81
2022-08-17T13:59:06.503Z,98362.34
2022-08-17T14:01:33.363Z,98365.75
2022-08-17T14:03:59.828Z,98355.19
2022-08-17T14:06:52.403Z,98369.16
2022-08-17T14:09:13.437Z,98362.22
2022-08-17T14:11:40.006Z,98365.38
2022-08-17T14:14:06.627Z,98363.41
2022-08-17T14:16:35.526Z,98371.56
2022-08-17T14:19:02.393Z,98363.03
2022-08-17T14:21:28.868Z,98356.41
2022-08-17T14:23:55.427Z,98365.34
2022-08-17T14:26:22.104Z,98364.69
2022-08-17T14:28:56.740Z,98356.25
2022-08-17T14:31:26.701Z,98355.94
2022-08-17T14:33:53.395Z,98357.19
2022-08-17T14:36:19.913Z,98349.81
2022-08-17T14:38:46.708Z,98356.25
2022-08-17T14:41:13.177Z,98353.44
2022-08-17T14:43:39.634Z,98352.06
2022-08-17T14:46:06.490Z,98346.78
2022-08-17T14:48:32.956Z,98350.13
2022-08-17T14:50:59.434Z,98352.81
2022-08-17T14:53:26.212Z,98349.00
2022-08-17T14:55:53.125Z,98350.22
2022-08-17T14:58:19.814Z,98355.84
2022-08-17T15:00:46.557Z,98361.75
2022-08-17T15:03:13.091Z,98346.44
2022-08-17T15:05:39.679Z,98353.81
2022-08-17T15:08:06.709Z,98354.38
2022-08-17T15:10:33.175Z,98371.28
2022-08-17T15:12:59.617Z,98359.13
2022-08-17T15:15:26.471Z,98352.03
2022-08-17T15:17:52.919Z,98358.88
2022-08-17T15:20:19.470Z,98361.13
2022-08-17T15:22:46.136Z,98357.66
2022-08-17T15:25:12.637Z,98358.66
2022-08-17T15:27:39.394Z,98359.78
2022-08-17T15:30:07.298Z,98361.50
2022-08-17T15:32:34.404Z,98363.09
2022-08-17T15:35:00.968Z,98355.75
2022-08-17T15:37:27.882Z,98355.84
2022-08-17T15:39:54.384Z,98357.66
2022-08-17T15:42:24.552Z,98363.88
2022-08-17T15:44:51.178Z,98354.41
2022-08-17T15:47:17.567Z,98359.41
2022-08-17T15:49:44.030Z,98363.94
2022-08-17T15:52:10.711Z,98357.72
2022-08-17T15:54:37.112Z,98353.03
2022-08-17T15:57:05.405Z,98370.66
2022-08-17T15:59:31.885Z,98361.47
2022-08-17T16:03:06.206Z,98366.66
2022-08-17T16:04:45.419Z,98359.09
2022-08-17T16:07:14.074Z,98362.41
2022-08-17T16:09:40.755Z,98353.09
2022-08-17T16:12:07.810Z,98350.28
2022-08-17T16:14:37.121Z,98351.50
2022-08-17T16:17:03.641Z,98348.41
2022-08-17T16:19:30.431Z,98344.34
2022-08-17T16:21:56.854Z,98354.97
2022-08-17T16:24:23.297Z,98353.31
2022-08-17T16:26:50.046Z,98356.88
2022-08-17T16:29:16.516Z,98353.66
2022-08-17T16:31:43.466Z,98352.91
2022-08-17T16:34:17.284Z,98359.34
2022-08-17T16:36:54.658Z,98359.56
2022-08-17T16:39:22.808Z,98356.59
2022-08-17T16:41:49.588Z,98359.78
2022-08-17T16:44:16.049Z,98353.03
2022-08-17T16:46:45.542Z,98352.97
2022-08-17T16:49:12.468Z,98348.59
2022-08-17T16:51:56.228Z,98350.34
2022-08-17T16:54:22.587Z,98350.69
2022-08-17T16:56:48.986Z,98358.06
2022-08-17T16:59:30.083Z,98360.38
2022-08-17T17:01:58.122Z,98371.31
2022-08-17T17:04:24.565Z,98371.41
2022-08-17T17:06:50.924Z,98374.88
2022-08-17T17:09:17.339Z,98367.97
2022-08-17T17:11:43.915Z,98368.97
2022-08-17T17:14:10.284Z,98365.16
2022-08-17T17:16:36.698Z,98361.28
2022-08-17T17:19:03.206Z,98366.53
2022-08-17T17:21:29.620Z,98366.44
2022-08-17T17:23:56.107Z,98366.03
2022-08-17T17:26:22.706Z,98365.63
2022-08-17T17:28:49.099Z,98364.00
2022-08-17T17:31:15.480Z,98369.41
2022-08-17T17:33:46.451Z,98369.66
2022-08-17T17:36:12.945Z,98364.59
2022-08-17T17:38:39.378Z,98365.38
2022-08-17T17:41:05.949Z,98364.06
2022-08-17T17:43:39.802Z,98366.22
2022-08-17T17:46:27.699Z,98368.34
2022-08-17T17:48:53.543Z,98364.09
2022-08-17T17:51:45.566Z,98359.97
2022-08-17T17:54:06.624Z,98361.63
2022-08-17T17:56:43.994Z,98362.47
2022-08-17T17:59:12.878Z,98359.47
2022-08-17T18:01:45.960Z,98360.53
2022-08-17T18:04:20.988Z,98362.13
2022-08-17T18:06:47.656Z,98365.59
2022-08-17T18:09:19.314Z,98364.47
2022-08-17T18:11:46.051Z,98373.00
2022-08-17T18:14:17.977Z,98378.38
2022-08-17T18:16:44.400Z,98375.63
2022-08-17T18:19:10.778Z,98385.97
2022-08-17T18:21:37.275Z,98389.81
2022-08-17T18:24:03.690Z,98388.59
2022-08-17T18:26:30.122Z,98388.47
2022-08-17T18:28:58.658Z,98394.00
2022-08-17T18:31:25.047Z,98394.34
2022-08-17T18:33:51.435Z,98388.28
2022-08-17T18:36:18.194Z,98397.44
2022-08-17T18:38:44.600Z,98391.31
2022-08-17T18:41:10.980Z,98389.25
2022-08-17T18:43:53.011Z,98394.78
2022-08-17T18:46:28.757Z,98402.47
2022-08-17T18:48:59.096Z,98407.69
2022-08-17T18:51:39.841Z,98408.91
2022-08-17T18:54:09.324Z,98405.53
2022-08-17T18:56:36.197Z,98408.31
2022-08-17T18:59:02.617Z,98404.13
2022-08-17T19:01:47.259Z,98415.91
2022-08-17T19:04:15.717Z,98413.75
2022-08-17T19:06:42.300Z,98401.31
2022-08-17T19:09:09.150Z,98407.03
2022-08-17T19:11:35.525Z,98403.72
2022-08-17T19:14:02.044Z,98404.53
2022-08-17T19:16:28.769Z,98410.84
2022-08-17T19:18:55.202Z,98398.03
2022-08-17T19:21:21.866Z,98400.81
2022-08-17T19:23:53.389Z,98400.97
2022-08-17T19:26:54.647Z,98404.28
2022-08-17T19:29:07.913Z,98402.94
2022-08-17T19:31:37.736Z,98410.16
2022-08-17T19:34:04.752Z,98415.72
2022-08-17T19:36:31.313Z,98409.09
2022-08-17T19:38:57.811Z,98408.50
2022-08-17T19:41:24.275Z,98403.66
2022-08-17T19:43:50.891Z,98396.34
2022-08-17T19:46:17.296Z,98403.06
2022-08-17T19:48:43.795Z,98400.34
2022-08-17T19:51:10.630Z,98396.31
2022-08-17T19:54:03.744Z,98389.22
2022-08-17T19:56:23.965Z,98390.03
2022-08-17T19:58:51.413Z,98388.38
2022-08-17T20:01:18.022Z,98383.19
2022-08-17T20:03:45.031Z,98381.97
2022-08-17T20:06:13.458Z,98392.00
2022-08-17T20:08:40.305Z,98390.56
2022-08-17T20:11:07.388Z,98396.44
2022-08-17T20:13:34.088Z,98389.41
2022-08-17T20:16:01.025Z,98388.09
2022-08-17T20:18:27.688Z,98389.31
2022-08-17T20:20:54.846Z,98393.47
2022-08-17T20:23:22.409Z,98397.00
2022-08-17T20:25:49.243Z,98401.91
2022-08-17T20:28:15.653Z,98400.25
2022-08-17T20:30:43.245Z,98401.91
2022-08-17T20:33:12.466Z,98395.28
2022-08-17T20:35:39.875Z,98391.97
2022-08-17T20:38:06.297Z,98388.44
2022-08-17T20:40:33.008Z,98396.34
2022-08-17T20:42:59.575Z,98400.56
2022-08-17T20:45:26.103Z,98395.31
2022-08-17T20:48:18.684Z,98400.22
2022-08-17T20:50:39.200Z,98393.44
2022-08-17T20:53:05.689Z,98393.44
2022-08-17T20:55:32.085Z,98390.56
2022-08-17T20:57:59.190Z,98404.25
2022-08-17T21:00:25.758Z,98403.66
2022-08-17T21:02:52.203Z,98412.09
2022-08-17T21:05:18.802Z,98420.84
2022-08-17T21:07:45.405Z,98422.94
2022-08-17T21:10:11.942Z,98433.41
2022-08-17T21:12:38.399Z,98441.59
2022-08-17T21:17:55.212Z,98451.44
2022-08-17T21:20:21.733Z,98448.50
2022-08-17T21:22:48.130Z,98454.50
2022-08-17T21:25:14.491Z,98463.44
2022-08-17T21:27:42.345Z,98463.88
2022-08-17T21:30:10.227Z,98463.88
2022-08-17T21:32:39.708Z,98465.56
2022-08-17T21:35:08.832Z,98470.22
2022-08-17T21:37:36.477Z,98472.56
2022-08-17T21:40:02.931Z,98474.34
2022-08-17T21:42:29.977Z,98473.72
2022-08-17T21:44:56.379Z,98477.91
2022-08-17T21:47:22.860Z,98475.75
2022-08-17T21:49:49.687Z,98470.50
2022-08-17T21:52:16.088Z,98462.59
2022-08-17T21:54:42.654Z,98468.88
2022-08-17T21:57:09.156Z,98466.09
2022-08-17T21:59:35.546Z,98458.22
2022-08-17T22:02:02.059Z,98454.03
2022-08-17T22:04:28.643Z,98441.13
2022-08-17T22:06:57.553Z,98436.28
2022-08-17T22:09:24.329Z,98433.97
2022-08-17T22:11:51.548Z,98435.25
2022-08-17T22:14:18.193Z,98441.28
2022-08-17T22:16:47.542Z,98451.06
2022-08-17T22:19:14.262Z,98462.78
2022-08-17T22:21:40.770Z,98453.63
2022-08-17T22:24:07.158Z,98444.72
2022-08-17T22:26:33.664Z,98441.34
2022-08-17T22:29:01.104Z,98447.78
2022-08-17T22:31:27.565Z,98447.78
2022-08-17T22:33:54.031Z,98447.78
2022-08-17T22:36:21.974Z,98446.63
2022-08-17T22:38:48.712Z,98443.25
2022-08-17T22:41:15.298Z,98440.78
2022-08-17T22:43:43.170Z,98437.00
2022-08-17T22:46:11.317Z,98424.91
2022-08-17T22:48:38.388Z,98427.00
2022-08-17T22:51:04.869Z,98426.38
2022-08-17T22:53:40.141Z,98430.94
2022-08-17T22:56:06.551Z,98428.66
2022-08-17T22:58:33.189Z,98415.13
2022-08-17T23:00:59.947Z,98412.44
2022-08-17T23:03:26.728Z,98419.94
2022-08-17T23:05:53.226Z,98424.72
2022-08-17T23:08:19.834Z,98419.94
2022-08-17T23:10:46.333Z,98414.50
2022-08-17T23:13:13.156Z,98418.28
2022-08-17T23:15:45.924Z,98416.00
2022-08-17T23:18:12.545Z,98407.03
2022-08-17T23:20:38.951Z,98406.91
2022-08-17T23:23:05.525Z,98403.38
2022-08-17T23:25:31.973Z,98401.69
2022-08-17T23:27:58.365Z,98393.41
2022-08-17T23:30:25.120Z,98397.56
2022-08-17T23:32:53.833Z,98391.75
2022-08-17T23:35:20.633Z,98393.22
2022-08-17T23:38:07.407Z,98375.75
2022-08-17T23:40:34.016Z,98383.84
2022-08-17T23:43:00.484Z,98386.34
2022-08-17T23:45:31.143Z,98385.94
2022-08-17T23:47:57.558Z,98386.34
2022-08-17T23:50:24.057Z,98384.28
2022-08-17T23:52:56.532Z,98384.91
2022-08-17T23:55:22.956Z,98385.72
2022-08-17T23:57:49.568Z,98376.78
